sensor_id;sensor_type;location;lat;lon;timestamp;temperature;humidity
24232;DHT22;12364;47.810;8.810;2023-04-28T03:46:53;15.10;95.80
24232;DHT22;12364;47.810;8.810;2023-04-28T03:49:20;15.20;95.80
24232;DHT22;12364;47.810;8.810;2023-04-28T03:51:47;15.10;95.80
24232;DHT22;12364;47.810;8.810;2023-04-28T03:54:15;15.20;96.10
24232;DHT22;12364;47.810;8.810;2023-04-28T03:56:43;15.20;96.10
24232;DHT22;12364;47.810;8.810;2023-04-28T03:59:10;15.40;96.20
24232;DHT22;12364;47.810;8.810;2023-04-28T04:01:38;15.20;96.10
24232;DHT22;12364;47.810;8.810;2023-04-28T04:04:04;15.30;96.00
24232;DHT22;12364;47.810;8.810;2023-04-28T04:06:33;15.30;96.10
24232;DHT22;12364;47.810;8.810;2023-04-28T04:09:00;15.30;96.10
24232;DHT22;12364;47.810;8.810;2023-04-28T04:11:27;15.30;96.20
24232;DHT22;12364;47.810;8.810;2023-04-28T04:13:54;15.30;96.20
24232;DHT22;12364;47.810;8.810;2023-04-28T04:16:21;15.30;96.20
24232;DHT22;12364;47.810;8.810;2023-04-28T04:18:48;15.30;96.20
24232;DHT22;12364;47.810;8.810;2023-04-28T04:21:15;15.30;96.30
24232;DHT22;12364;47.810;8.810;2023-04-28T04:23:42;15.30;96.30
24232;DHT22;12364;47.810;8.810;2023-04-28T04:26:09;15.30;96.30
24232;DHT22;12364;47.810;8.810;2023-04-28T04:28:36;15.30;96.20
24232;DHT22;12364;47.810;8.810;2023-04-28T04:31:03;15.20;96.10
24232;DHT22;12364;47.810;8.810;2023-04-28T04:33:30;15.20;96.20
24232;DHT22;12364;47.810;8.810;2023-04-28T04:35:57;15.20;96.20
24232;DHT22;12364;47.810;8.810;2023-04-28T04:38:24;15.20;96.40
24232;DHT22;12364;47.810;8.810;2023-04-28T04:40:51;15.20;96.50
24232;DHT22;12364;47.810;8.810;2023-04-28T04:43:18;15.20;96.50
24232;DHT22;12364;47.810;8.810;2023-04-28T04:45:46;15.20;96.40
24232;DHT22;12364;47.810;8.810;2023-04-28T04:48:13;15.10;96.50
24232;DHT22;12364;47.810;8.810;2023-04-28T04:50:40;15.20;96.60
24232;DHT22;12364;47.810;8.810;2023-04-28T04:53:08;15.20;96.70
24232;DHT22;12364;47.810;8.810;2023-04-28T04:55:41;15.10;96.60
24232;DHT22;12364;47.810;8.810;2023-04-28T04:58:08;15.10;96.60
24232;DHT22;12364;47.810;8.810;2023-04-28T05:00:35;15.20;96.60
24232;DHT22;12364;47.810;8.810;2023-04-28T05:03:03;15.10;96.70
24232;DHT22;12364;47.810;8.810;2023-04-28T05:05:32;15.10;96.80
24232;DHT22;12364;47.810;8.810;2023-04-28T05:08:00;15.20;96.70
24232;DHT22;12364;47.810;8.810;2023-04-28T05:10:28;15.10;96.80
24232;DHT22;12364;47.810;8.810;2023-04-28T05:12:55;15.30;96.80
24232;DHT22;12364;47.810;8.810;2023-04-28T05:15:22;15.20;96.90
24232;DHT22;12364;47.810;8.810;2023-04-28T05:17:48;15.20;96.90
24232;DHT22;12364;47.810;8.810;2023-04-28T05:20:16;15.20;97.10
24232;DHT22;12364;47.810;8.810;2023-04-28T05:22:43;15.20;97.00
24232;DHT22;12364;47.810;8.810;2023-04-28T05:25:10;15.20;97.20
24232;DHT22;12364;47.810;8.810;2023-04-28T05:27:36;15.20;97.20
24232;DHT22;12364;47.810;8.810;2023-04-28T05:30:06;15.20;97.00
24232;DHT22;12364;47.810;8.810;2023-04-28T05:32:33;15.20;97.10
24232;DHT22;12364;47.810;8.810;2023-04-28T05:35:00;15.10;97.20
24232;DHT22;12364;47.810;8.810;2023-04-28T05:37:28;15.20;97.30
24232;DHT22;12364;47.810;8.810;2023-04-28T05:39:55;15.10;97.20
24232;DHT22;12364;47.810;8.810;2023-04-28T05:42:22;15.10;97.40
24232;DHT22;12364;47.810;8.810;2023-04-28T05:44:49;15.10;97.30
24232;DHT22;12364;47.810;8.810;2023-04-28T05:47:16;15.10;97.40
24232;DHT22;12364;47.810;8.810;2023-04-28T05:49:43;15.10;97.60
24232;DHT22;12364;47.810;8.810;2023-04-28T05:52:10;15.10;97.60
24232;DHT22;12364;47.810;8.810;2023-04-28T05:54:37;15.10;97.70
24232;DHT22;12364;47.810;8.810;2023-04-28T05:57:03;15.10;97.60
24232;DHT22;12364;47.810;8.810;2023-04-28T05:59:30;15.20;97.70
24232;DHT22;12364;47.810;8.810;2023-04-28T06:01:58;15.20;97.50
24232;DHT22;12364;47.810;8.810;2023-04-28T06:04:25;15.10;97.60
24232;DHT22;12364;47.810;8.810;2023-04-28T06:06:52;15.20;97.70
24232;DHT22;12364;47.810;8.810;2023-04-28T06:09:19;15.20;97.90
24232;DHT22;12364;47.810;8.810;2023-04-28T06:11:46;15.10;97.70
24232;DHT22;12364;47.810;8.810;2023-04-28T06:14:13;15.20;97.90
24232;DHT22;12364;47.810;8.810;2023-04-28T06:16:40;15.20;97.90
24232;DHT22;12364;47.810;8.810;2023-04-28T06:19:07;15.20;98.00
24232;DHT22;12364;47.810;8.810;2023-04-28T06:21:35;15.30;98.00
24232;DHT22;12364;47.810;8.810;2023-04-28T06:24:02;15.30;98.10
24232;DHT22;12364;47.810;8.810;2023-04-28T06:26:29;15.30;98.00
24232;DHT22;12364;47.810;8.810;2023-04-28T06:28:56;15.30;98.30
24232;DHT22;12364;47.810;8.810;2023-04-28T06:31:23;15.30;98.50
24232;DHT22;12364;47.810;8.810;2023-04-28T06:33:50;15.30;98.60
24232;DHT22;12364;47.810;8.810;2023-04-28T06:36:17;15.40;98.50
24232;DHT22;12364;47.810;8.810;2023-04-28T06:38:44;15.30;98.50
24232;DHT22;12364;47.810;8.810;2023-04-28T06:41:11;15.40;98.50
24232;DHT22;12364;47.810;8.810;2023-04-28T06:43:38;15.40;98.40
24232;DHT22;12364;47.810;8.810;2023-04-28T06:46:05;15.30;98.70
24232;DHT22;12364;47.810;8.810;2023-04-28T06:48:32;15.40;98.90
24232;DHT22;12364;47.810;8.810;2023-04-28T06:50:59;15.40;98.90
24232;DHT22;12364;47.810;8.810;2023-04-28T06:53:26;15.40;99.10
24232;DHT22;12364;47.810;8.810;2023-04-28T06:55:53;15.40;99.30
24232;DHT22;12364;47.810;8.810;2023-04-28T06:58:20;15.50;99.20
24232;DHT22;12364;47.810;8.810;2023-04-28T07:00:47;15.50;99.30
24232;DHT22;12364;47.810;8.810;2023-04-28T07:03:14;15.60;99.60
24232;DHT22;12364;47.810;8.810;2023-04-28T07:05:42;15.50;99.50
24232;DHT22;12364;47.810;8.810;2023-04-28T07:08:09;15.50;99.60
24232;DHT22;12364;47.810;8.810;2023-04-28T07:10:36;15.60;99.70
24232;DHT22;12364;47.810;8.810;2023-04-28T07:13:03;15.60;99.70
24232;DHT22;12364;47.810;8.810;2023-04-28T07:15:30;15.60;99.80
24232;DHT22;12364;47.810;8.810;2023-04-28T07:17:57;15.70;99.80
24232;DHT22;12364;47.810;8.810;2023-04-28T07:20:24;15.70;99.70
24232;DHT22;12364;47.810;8.810;2023-04-28T07:22:51;15.70;99.80
24232;DHT22;12364;47.810;8.810;2023-04-28T07:25:18;15.70;99.90
24232;DHT22;12364;47.810;8.810;2023-04-28T07:27:45;15.80;99.90
24232;DHT22;12364;47.810;8.810;2023-04-28T07:30:12;15.80;99.90
24232;DHT22;12364;47.810;8.810;2023-04-28T07:32:54;15.80;99.90
24232;DHT22;12364;47.810;8.810;2023-04-28T07:35:21;15.80;99.90
24232;DHT22;12364;47.810;8.810;2023-04-28T07:37:48;15.80;99.90
24232;DHT22;12364;47.810;8.810;2023-04-28T07:40:15;15.80;99.90
24232;DHT22;12364;47.810;8.810;2023-04-28T07:42:42;15.80;99.90
24232;DHT22;12364;47.810;8.810;2023-04-28T07:45:09;15.80;99.80
24232;DHT22;12364;47.810;8.810;2023-04-28T07:47:36;15.70;99.90
24232;DHT22;12364;47.810;8.810;2023-04-28T07:50:03;15.70;99.90
24232;DHT22;12364;47.810;8.810;2023-04-28T07:52:32;15.70;99.90
24232;DHT22;12364;47.810;8.810;2023-04-28T07:54:59;15.60;99.90
24232;DHT22;12364;47.810;8.810;2023-04-28T07:57:26;15.60;99.90
24232;DHT22;12364;47.810;8.810;2023-04-28T07:59:55;15.60;99.90
24232;DHT22;12364;47.810;8.810;2023-04-28T08:02:22;15.60;99.90
24232;DHT22;12364;47.810;8.810;2023-04-28T08:04:49;15.60;99.90
24232;DHT22;12364;47.810;8.810;2023-04-28T08:07:16;15.60;99.90
24232;DHT22;12364;47.810;8.810;2023-04-28T08:09:43;15.60;99.90
24232;DHT22;12364;47.810;8.810;2023-04-28T08:12:13;15.60;99.90
24232;DHT22;12364;47.810;8.810;2023-04-28T08:14:40;15.80;99.90
24232;DHT22;12364;47.810;8.810;2023-04-28T08:17:07;15.50;99.90
24232;DHT22;12364;47.810;8.810;2023-04-28T08:19:35;15.50;99.90
24232;DHT22;12364;47.810;8.810;2023-04-28T08:22:02;15.40;99.90
24232;DHT22;12364;47.810;8.810;2023-04-28T08:24:33;15.50;99.90
24232;DHT22;12364;47.810;8.810;2023-04-28T08:27:00;15.40;99.90
24232;DHT22;12364;47.810;8.810;2023-04-28T08:29:29;15.40;99.90
24232;DHT22;12364;47.810;8.810;2023-04-28T08:31:57;15.40;99.90
24232;DHT22;12364;47.810;8.810;2023-04-28T08:34:24;15.40;99.90
24232;DHT22;12364;47.810;8.810;2023-04-28T08:36:51;15.40;99.90
24232;DHT22;12364;47.810;8.810;2023-04-28T08:39:19;15.40;99.90
24232;DHT22;12364;47.810;8.810;2023-04-28T08:41:48;15.40;99.90
24232;DHT22;12364;47.810;8.810;2023-04-28T08:44:16;15.30;99.90
24232;DHT22;12364;47.810;8.810;2023-04-28T08:46:45;15.40;99.90
24232;DHT22;12364;47.810;8.810;2023-04-28T08:49:13;15.40;99.90
24232;DHT22;12364;47.810;8.810;2023-04-28T08:51:59;15.40;99.90
24232;DHT22;12364;47.810;8.810;2023-04-28T08:54:28;15.60;99.90
24232;DHT22;12364;47.810;8.810;2023-04-28T08:56:56;15.60;99.90
24232;DHT22;12364;47.810;8.810;2023-04-28T08:59:23;15.70;99.90
24232;DHT22;12364;47.810;8.810;2023-04-28T09:01:51;15.80;99.90
24232;DHT22;12364;47.810;8.810;2023-04-28T09:04:18;15.80;99.90
24232;DHT22;12364;47.810;8.810;2023-04-28T09:06:46;15.80;99.90
24232;DHT22;12364;47.810;8.810;2023-04-28T09:09:16;15.90;99.90
24232;DHT22;12364;47.810;8.810;2023-04-28T09:11:53;15.90;99.90
24232;DHT22;12364;47.810;8.810;2023-04-28T09:14:21;15.90;99.90
24232;DHT22;12364;47.810;8.810;2023-04-28T09:16:49;15.90;99.90
24232;DHT22;12364;47.810;8.810;2023-04-28T09:19:17;15.90;99.90
24232;DHT22;12364;47.810;8.810;2023-04-28T09:21:48;16.10;99.90
24232;DHT22;12364;47.810;8.810;2023-04-28T09:25:09;16.10;99.90
24232;DHT22;12364;47.810;8.810;2023-04-28T09:27:12;16.10;99.90
24232;DHT22;12364;47.810;8.810;2023-04-28T09:29:53;16.10;99.90
24232;DHT22;12364;47.810;8.810;2023-04-28T09:32:21;16.00;99.90
24232;DHT22;12364;47.810;8.810;2023-04-28T09:34:49;16.10;99.90
24232;DHT22;12364;47.810;8.810;2023-04-28T09:37:17;16.00;99.90
24232;DHT22;12364;47.810;8.810;2023-04-28T09:39:46;16.00;99.90
24232;DHT22;12364;47.810;8.810;2023-04-28T09:42:34;16.00;99.90
24232;DHT22;12364;47.810;8.810;2023-04-28T09:45:02;16.00;99.90
24232;DHT22;12364;47.810;8.810;2023-04-28T09:47:30;15.90;99.90
24232;DHT22;12364;47.810;8.810;2023-04-28T09:50:02;16.00;99.90
24232;DHT22;12364;47.810;8.810;2023-04-28T09:52:29;16.00;99.90
24232;DHT22;12364;47.810;8.810;2023-04-28T09:54:56;16.10;99.90
24232;DHT22;12364;47.810;8.810;2023-04-28T09:57:24;16.10;99.90
24232;DHT22;12364;47.810;8.810;2023-04-28T09:59:51;16.20;99.90
24232;DHT22;12364;47.810;8.810;2023-04-28T10:02:19;16.20;99.90
24232;DHT22;12364;47.810;8.810;2023-04-28T10:05:07;16.30;99.90
24232;DHT22;12364;47.810;8.810;2023-04-28T10:07:36;16.30;99.90
24232;DHT22;12364;47.810;8.810;2023-04-28T10:10:03;16.30;99.90
24232;DHT22;12364;47.810;8.810;2023-04-28T10:12:31;16.30;99.90
24232;DHT22;12364;47.810;8.810;2023-04-28T10:14:58;16.40;99.90
24232;DHT22;12364;47.810;8.810;2023-04-28T10:17:25;16.40;99.90
24232;DHT22;12364;47.810;8.810;2023-04-28T10:19:56;16.40;99.90
24232;DHT22;12364;47.810;8.810;2023-04-28T10:25:06;16.40;99.90
24232;DHT22;12364;47.810;8.810;2023-04-28T10:27:34;16.40;99.90
24232;DHT22;12364;47.810;8.810;2023-04-28T10:30:14;16.40;99.90
24232;DHT22;12364;47.810;8.810;2023-04-28T10:32:44;16.50;99.90
24232;DHT22;12364;47.810;8.810;2023-04-28T10:40:34;16.50;99.90
24232;DHT22;12364;47.810;8.810;2023-04-28T10:43:02;16.50;99.90
24232;DHT22;12364;47.810;8.810;2023-04-28T10:48:14;16.60;99.90
24232;DHT22;12364;47.810;8.810;2023-04-28T10:51:26;16.60;99.90
24232;DHT22;12364;47.810;8.810;2023-04-28T10:58:45;16.70;99.90
24232;DHT22;12364;47.810;8.810;2023-04-28T11:03:55;16.80;99.90
24232;DHT22;12364;47.810;8.810;2023-04-28T11:06:30;16.80;99.90
24232;DHT22;12364;47.810;8.810;2023-04-28T11:16:56;16.90;99.90
24232;DHT22;12364;47.810;8.810;2023-04-28T11:19:28;17.00;99.90
24232;DHT22;12364;47.810;8.810;2023-04-28T11:21:55;17.10;99.90
24232;DHT22;12364;47.810;8.810;2023-04-28T11:24:23;17.10;99.90
24232;DHT22;12364;47.810;8.810;2023-04-28T11:26:55;17.00;99.90
24232;DHT22;12364;47.810;8.810;2023-04-28T11:29:35;17.10;99.90
24232;DHT22;12364;47.810;8.810;2023-04-28T11:32:05;17.10;99.90
24232;DHT22;12364;47.810;8.810;2023-04-28T11:34:33;17.10;99.90
24232;DHT22;12364;47.810;8.810;2023-04-28T11:37:01;17.20;99.90
24232;DHT22;12364;47.810;8.810;2023-04-28T11:39:29;17.20;99.90
24232;DHT22;12364;47.810;8.810;2023-04-28T11:41:56;17.20;99.90
24232;DHT22;12364;47.810;8.810;2023-04-28T11:44:25;17.30;99.90
24232;DHT22;12364;47.810;8.810;2023-04-28T11:46:53;17.30;99.90
24232;DHT22;12364;47.810;8.810;2023-04-28T11:49:26;17.30;99.90
24232;DHT22;12364;47.810;8.810;2023-04-28T11:51:56;17.40;99.90
24232;DHT22;12364;47.810;8.810;2023-04-28T11:54:26;17.40;99.90
24232;DHT22;12364;47.810;8.810;2023-04-28T11:56:55;17.40;99.90
24232;DHT22;12364;47.810;8.810;2023-04-28T11:59:28;17.40;99.90
24232;DHT22;12364;47.810;8.810;2023-04-28T12:01:57;17.40;99.90
24232;DHT22;12364;47.810;8.810;2023-04-28T12:04:43;17.50;99.90
24232;DHT22;12364;47.810;8.810;2023-04-28T12:07:14;17.50;99.90
24232;DHT22;12364;47.810;8.810;2023-04-28T12:09:42;17.60;99.90
24232;DHT22;12364;47.810;8.810;2023-04-28T12:12:10;17.60;99.90
24232;DHT22;12364;47.810;8.810;2023-04-28T12:20:05;17.70;99.90
24232;DHT22;12364;47.810;8.810;2023-04-28T12:22:49;17.70;99.90
24232;DHT22;12364;47.810;8.810;2023-04-28T12:25:17;17.70;99.90
24232;DHT22;12364;47.810;8.810;2023-04-28T12:27:57;17.80;99.90
24232;DHT22;12364;47.810;8.810;2023-04-28T12:30:27;17.80;99.90
24232;DHT22;12364;47.810;8.810;2023-04-28T12:32:54;17.90;99.90
24232;DHT22;12364;47.810;8.810;2023-04-28T12:35:22;17.90;99.90
24232;DHT22;12364;47.810;8.810;2023-04-28T12:37:50;17.90;99.90
24232;DHT22;12364;47.810;8.810;2023-04-28T12:40:18;18.00;99.90
24232;DHT22;12364;47.810;8.810;2023-04-28T12:42:45;18.00;99.90
24232;DHT22;12364;47.810;8.810;2023-04-28T12:45:12;18.10;99.90
24232;DHT22;12364;47.810;8.810;2023-04-28T12:47:40;18.10;99.90
24232;DHT22;12364;47.810;8.810;2023-04-28T12:50:08;18.10;99.90
24232;DHT22;12364;47.810;8.810;2023-04-28T12:52:35;18.10;99.90
24232;DHT22;12364;47.810;8.810;2023-04-28T12:55:03;18.10;99.90
24232;DHT22;12364;47.810;8.810;2023-04-28T12:57:30;18.10;99.90
24232;DHT22;12364;47.810;8.810;2023-04-28T12:59:57;18.20;99.90
24232;DHT22;12364;47.810;8.810;2023-04-28T13:02:24;18.30;99.90
24232;DHT22;12364;47.810;8.810;2023-04-28T13:04:51;18.30;99.90
24232;DHT22;12364;47.810;8.810;2023-04-28T13:07:19;18.30;99.90
24232;DHT22;12364;47.810;8.810;2023-04-28T13:09:46;18.40;99.90
24232;DHT22;12364;47.810;8.810;2023-04-28T13:12:14;18.40;99.90
24232;DHT22;12364;47.810;8.810;2023-04-28T13:14:41;18.40;99.90
24232;DHT22;12364;47.810;8.810;2023-04-28T13:17:08;18.40;99.90
24232;DHT22;12364;47.810;8.810;2023-04-28T13:19:36;18.40;99.90
24232;DHT22;12364;47.810;8.810;2023-04-28T13:22:03;18.50;99.90
24232;DHT22;12364;47.810;8.810;2023-04-28T13:24:32;18.50;99.90
24232;DHT22;12364;47.810;8.810;2023-04-28T13:26:59;18.50;99.90
24232;DHT22;12364;47.810;8.810;2023-04-28T13:29:26;18.60;99.90
24232;DHT22;12364;47.810;8.810;2023-04-28T13:31:53;18.80;99.90
24232;DHT22;12364;47.810;8.810;2023-04-28T13:34:20;18.80;99.90
24232;DHT22;12364;47.810;8.810;2023-04-28T13:36:47;18.70;99.90
24232;DHT22;12364;47.810;8.810;2023-04-28T13:39:16;18.70;99.90
24232;DHT22;12364;47.810;8.810;2023-04-28T13:41:45;18.80;99.90
24232;DHT22;12364;47.810;8.810;2023-04-28T13:44:12;18.80;99.90
24232;DHT22;12364;47.810;8.810;2023-04-28T13:46:40;18.80;99.90
24232;DHT22;12364;47.810;8.810;2023-04-28T13:49:10;18.90;99.90
24232;DHT22;12364;47.810;8.810;2023-04-28T13:51:37;18.90;99.90
24232;DHT22;12364;47.810;8.810;2023-04-28T13:54:04;18.90;99.90
24232;DHT22;12364;47.810;8.810;2023-04-28T13:56:34;18.90;99.90
24232;DHT22;12364;47.810;8.810;2023-04-28T13:59:02;19.00;99.90
24232;DHT22;12364;47.810;8.810;2023-04-28T14:01:29;19.10;99.90
24232;DHT22;12364;47.810;8.810;2023-04-28T14:03:56;19.10;99.90
24232;DHT22;12364;47.810;8.810;2023-04-28T14:06:24;19.10;99.90
24232;DHT22;12364;47.810;8.810;2023-04-28T14:08:53;19.20;99.90
24232;DHT22;12364;47.810;8.810;2023-04-28T14:11:20;19.20;99.90
24232;DHT22;12364;47.810;8.810;2023-04-28T14:13:48;19.30;99.90
24232;DHT22;12364;47.810;8.810;2023-04-28T14:16:15;19.40;99.90
24232;DHT22;12364;47.810;8.810;2023-04-28T14:18:42;19.30;99.90
24232;DHT22;12364;47.810;8.810;2023-04-28T14:21:09;19.30;99.90
24232;DHT22;12364;47.810;8.810;2023-04-28T14:23:36;19.30;99.90
24232;DHT22;12364;47.810;8.810;2023-04-28T14:26:04;19.30;99.90
24232;DHT22;12364;47.810;8.810;2023-04-28T14:28:31;19.20;99.90
24232;DHT22;12364;47.810;8.810;2023-04-28T14:31:01;19.20;99.90
24232;DHT22;12364;47.810;8.810;2023-04-28T14:33:29;19.20;99.90
24232;DHT22;12364;47.810;8.810;2023-04-28T14:35:56;19.30;99.90
24232;DHT22;12364;47.810;8.810;2023-04-28T14:38:23;19.20;99.90
24232;DHT22;12364;47.810;8.810;2023-04-28T14:40:50;19.20;99.90
24232;DHT22;12364;47.810;8.810;2023-04-28T14:43:17;19.20;99.90
24232;DHT22;12364;47.810;8.810;2023-04-28T14:45:44;19.30;99.90
24232;DHT22;12364;47.810;8.810;2023-04-28T14:48:11;19.30;99.90
24232;DHT22;12364;47.810;8.810;2023-04-28T14:50:39;19.30;99.90
24232;DHT22;12364;47.810;8.810;2023-04-28T14:53:06;19.40;99.90
24232;DHT22;12364;47.810;8.810;2023-04-28T14:55:33;19.50;99.90
24232;DHT22;12364;47.810;8.810;2023-04-28T14:58:01;19.50;99.90
24232;DHT22;12364;47.810;8.810;2023-04-28T15:00:28;19.50;99.90
24232;DHT22;12364;47.810;8.810;2023-04-28T15:02:56;19.40;99.90
24232;DHT22;12364;47.810;8.810;2023-04-28T15:05:23;19.30;99.90
24232;DHT22;12364;47.810;8.810;2023-04-28T15:07:50;19.30;99.90
24232;DHT22;12364;47.810;8.810;2023-04-28T15:10:18;19.30;99.90
24232;DHT22;12364;47.810;8.810;2023-04-28T15:12:45;19.30;99.90
24232;DHT22;12364;47.810;8.810;2023-04-28T15:15:12;19.30;99.90
24232;DHT22;12364;47.810;8.810;2023-04-28T15:17:40;19.30;99.90
24232;DHT22;12364;47.810;8.810;2023-04-28T15:20:07;19.40;99.90
24232;DHT22;12364;47.810;8.810;2023-04-28T15:22:34;19.40;99.90
24232;DHT22;12364;47.810;8.810;2023-04-28T15:25:02;19.30;99.90
24232;DHT22;12364;47.810;8.810;2023-04-28T15:27:29;19.40;99.90
24232;DHT22;12364;47.810;8.810;2023-04-28T15:29:56;19.40;99.90
24232;DHT22;12364;47.810;8.810;2023-04-28T15:32:23;19.40;99.90
24232;DHT22;12364;47.810;8.810;2023-04-28T15:34:51;19.50;99.90
24232;DHT22;12364;47.810;8.810;2023-04-28T15:37:37;19.50;99.90
24232;DHT22;12364;47.810;8.810;2023-04-28T15:40:05;19.40;99.90
24232;DHT22;12364;47.810;8.810;2023-04-28T15:42:32;19.50;99.90
24232;DHT22;12364;47.810;8.810;2023-04-28T15:44:59;19.30;99.90
24232;DHT22;12364;47.810;8.810;2023-04-28T15:47:28;19.40;99.90
24232;DHT22;12364;47.810;8.810;2023-04-28T15:49:57;19.40;99.90
24232;DHT22;12364;47.810;8.810;2023-04-28T15:52:27;19.50;99.90
24232;DHT22;12364;47.810;8.810;2023-04-28T15:54:54;19.50;99.90
24232;DHT22;12364;47.810;8.810;2023-04-28T15:57:21;19.50;99.90
24232;DHT22;12364;47.810;8.810;2023-04-28T15:59:48;19.50;99.90
24232;DHT22;12364;47.810;8.810;2023-04-28T16:02:17;19.50;99.90
24232;DHT22;12364;47.810;8.810;2023-04-28T16:04:44;19.50;99.90
24232;DHT22;12364;47.810;8.810;2023-04-28T16:07:12;19.40;99.90
24232;DHT22;12364;47.810;8.810;2023-04-28T16:09:39;19.50;99.90
24232;DHT22;12364;47.810;8.810;2023-04-28T16:12:06;19.50;99.90
24232;DHT22;12364;47.810;8.810;2023-04-28T16:14:34;19.50;99.90
24232;DHT22;12364;47.810;8.810;2023-04-28T16:17:02;19.50;99.90
24232;DHT22;12364;47.810;8.810;2023-04-28T16:19:29;19.60;99.90
24232;DHT22;12364;47.810;8.810;2023-04-28T16:21:56;19.50;99.90
24232;DHT22;12364;47.810;8.810;2023-04-28T16:24:24;19.50;99.90
24232;DHT22;12364;47.810;8.810;2023-04-28T16:26:51;19.50;99.90
24232;DHT22;12364;47.810;8.810;2023-04-28T16:29:19;19.60;99.90
24232;DHT22;12364;47.810;8.810;2023-04-28T16:31:46;19.70;99.90
24232;DHT22;12364;47.810;8.810;2023-04-28T16:34:12;19.60;99.90
24232;DHT22;12364;47.810;8.810;2023-04-28T16:36:39;19.60;99.90
24232;DHT22;12364;47.810;8.810;2023-04-28T16:39:07;19.50;99.90
24232;DHT22;12364;47.810;8.810;2023-04-28T16:41:35;19.50;99.90
24232;DHT22;12364;47.810;8.810;2023-04-28T16:44:03;19.50;99.90
24232;DHT22;12364;47.810;8.810;2023-04-28T16:46:29;19.50;99.90
24232;DHT22;12364;47.810;8.810;2023-04-28T16:48:57;19.50;99.90
24232;DHT22;12364;47.810;8.810;2023-04-28T16:51:24;19.40;99.90
24232;DHT22;12364;47.810;8.810;2023-04-28T16:53:51;19.40;99.90
24232;DHT22;12364;47.810;8.810;2023-04-28T16:56:18;19.40;99.90
24232;DHT22;12364;47.810;8.810;2023-04-28T16:58:45;19.40;99.90
24232;DHT22;12364;47.810;8.810;2023-04-28T17:01:12;19.40;99.90
24232;DHT22;12364;47.810;8.810;2023-04-28T17:03:39;19.40;99.90
24232;DHT22;12364;47.810;8.810;2023-04-28T17:06:09;19.40;99.90
24232;DHT22;12364;47.810;8.810;2023-04-28T17:08:36;19.40;99.90
24232;DHT22;12364;47.810;8.810;2023-04-28T17:11:06;19.40;99.90
24232;DHT22;12364;47.810;8.810;2023-04-28T17:13:33;19.30;99.90
24232;DHT22;12364;47.810;8.810;2023-04-28T17:16:01;19.20;99.90
24232;DHT22;12364;47.810;8.810;2023-04-28T17:18:28;19.20;99.90
24232;DHT22;12364;47.810;8.810;2023-04-28T17:20:55;19.20;99.90
24232;DHT22;12364;47.810;8.810;2023-04-28T17:23:22;19.20;99.90
24232;DHT22;12364;47.810;8.810;2023-04-28T17:25:49;19.00;99.90
24232;DHT22;12364;47.810;8.810;2023-04-28T17:28:16;19.10;99.90
24232;DHT22;12364;47.810;8.810;2023-04-28T17:30:43;19.10;99.90
24232;DHT22;12364;47.810;8.810;2023-04-28T17:33:13;19.10;99.90
24232;DHT22;12364;47.810;8.810;2023-04-28T17:35:41;19.20;99.90
24232;DHT22;12364;47.810;8.810;2023-04-28T17:38:08;19.20;99.90
24232;DHT22;12364;47.810;8.810;2023-04-28T17:40:35;19.10;99.90
24232;DHT22;12364;47.810;8.810;2023-04-28T17:43:02;19.20;99.90
24232;DHT22;12364;47.810;8.810;2023-04-28T17:45:30;19.20;99.90
24232;DHT22;12364;47.810;8.810;2023-04-28T17:47:57;19.10;99.90
24232;DHT22;12364;47.810;8.810;2023-04-28T17:50:26;19.10;99.90
24232;DHT22;12364;47.810;8.810;2023-04-28T17:52:53;19.10;99.90
24232;DHT22;12364;47.810;8.810;2023-04-28T17:55:20;19.00;99.90
24232;DHT22;12364;47.810;8.810;2023-04-28T17:57:48;19.00;99.90
24232;DHT22;12364;47.810;8.810;2023-04-28T18:00:17;19.00;99.90
24232;DHT22;12364;47.810;8.810;2023-04-28T18:02:44;19.00;99.90
24232;DHT22;12364;47.810;8.810;2023-04-28T18:05:11;18.90;99.90
24232;DHT22;12364;47.810;8.810;2023-04-28T18:07:38;18.90;99.90
24232;DHT22;12364;47.810;8.810;2023-04-28T18:10:05;18.90;99.90
24232;DHT22;12364;47.810;8.810;2023-04-28T18:12:32;18.90;99.90
24232;DHT22;12364;47.810;8.810;2023-04-28T18:14:59;18.90;99.90
24232;DHT22;12364;47.810;8.810;2023-04-28T18:17:27;18.90;99.90
24232;DHT22;12364;47.810;8.810;2023-04-28T18:19:54;18.90;99.90
24232;DHT22;12364;47.810;8.810;2023-04-28T18:22:22;18.90;99.90
24232;DHT22;12364;47.810;8.810;2023-04-28T18:24:49;18.90;99.90
24232;DHT22;12364;47.810;8.810;2023-04-28T18:27:17;18.90;99.90
24232;DHT22;12364;47.810;8.810;2023-04-28T18:29:44;18.90;99.90
24232;DHT22;12364;47.810;8.810;2023-04-28T18:32:11;18.90;99.90
24232;DHT22;12364;47.810;8.810;2023-04-28T18:34:41;18.90;99.90
24232;DHT22;12364;47.810;8.810;2023-04-28T18:37:09;18.80;99.90
24232;DHT22;12364;47.810;8.810;2023-04-28T18:39:36;18.70;99.90
24232;DHT22;12364;47.810;8.810;2023-04-28T18:42:03;18.70;99.90
24232;DHT22;12364;47.810;8.810;2023-04-28T18:44:30;18.80;99.90
24232;DHT22;12364;47.810;8.810;2023-04-28T18:46:57;18.70;99.90
24232;DHT22;12364;47.810;8.810;2023-04-28T18:49:25;18.70;99.90
24232;DHT22;12364;47.810;8.810;2023-04-28T18:51:52;18.70;99.90
24232;DHT22;12364;47.810;8.810;2023-04-28T18:54:19;18.70;99.90
24232;DHT22;12364;47.810;8.810;2023-04-28T18:56:46;18.60;99.90
24232;DHT22;12364;47.810;8.810;2023-04-28T18:59:18;18.60;99.90
24232;DHT22;12364;47.810;8.810;2023-04-28T19:01:45;18.60;99.90
24232;DHT22;12364;47.810;8.810;2023-04-28T19:04:12;18.60;99.90
24232;DHT22;12364;47.810;8.810;2023-04-28T19:06:40;18.60;99.90
24232;DHT22;12364;47.810;8.810;2023-04-28T19:09:09;18.50;99.90
24232;DHT22;12364;47.810;8.810;2023-04-28T19:11:36;18.50;99.90
24232;DHT22;12364;47.810;8.810;2023-04-28T19:14:03;18.50;99.90
24232;DHT22;12364;47.810;8.810;2023-04-28T19:16:31;18.60;99.90
24232;DHT22;12364;47.810;8.810;2023-04-28T19:18:58;18.70;99.90
24232;DHT22;12364;47.810;8.810;2023-04-28T19:21:25;18.50;99.90
24232;DHT22;12364;47.810;8.810;2023-04-28T19:23:52;18.50;99.90
24232;DHT22;12364;47.810;8.810;2023-04-28T19:26:19;18.40;99.90
24232;DHT22;12364;47.810;8.810;2023-04-28T19:28:46;18.40;99.90
24232;DHT22;12364;47.810;8.810;2023-04-28T19:31:14;18.40;99.90
24232;DHT22;12364;47.810;8.810;2023-04-28T19:33:41;18.40;99.90
24232;DHT22;12364;47.810;8.810;2023-04-28T19:36:08;18.30;99.90
24232;DHT22;12364;47.810;8.810;2023-04-28T19:38:35;18.20;99.90
24232;DHT22;12364;47.810;8.810;2023-04-28T19:41:02;18.30;99.90
24232;DHT22;12364;47.810;8.810;2023-04-28T19:43:29;18.30;99.90
24232;DHT22;12364;47.810;8.810;2023-04-28T19:45:57;18.30;99.90
24232;DHT22;12364;47.810;8.810;2023-04-28T19:48:24;18.40;99.90
24232;DHT22;12364;47.810;8.810;2023-04-28T19:50:52;18.40;99.90
24232;DHT22;12364;47.810;8.810;2023-04-28T19:53:19;18.40;99.90